CBT3 weather

Tsetzi Lake (Pan Phillips) Airport
Tsetzi Lake, British Columbia, Canada

Public forecast

Using degrees Celsius for public forecast. Weather courtesy of forecast.io.

METAR (pilot weather report)

Closest report is Bella Coola Airport, 67.0 nm (124.1 km) WSW. Retrieved 2019/08/21 23:00 UTC (34 minutes ago):

CYBD 212300Z 24018G26KT 15SM BKN080 18/09 A2994 RMK AC7 SLP140 DENSITY ALT 500FT

TAF (pilot weather forecast)

Closest forecast is Quesnel Airport, 91.0 nm (168.5 km) E. Retrieved 2019/08/21 19:00 UTC (5 hours ago):

TAF CYQZ 211840Z 2119/2206 17015G25KT P6SM BKN100 TEMPO 2119/2121 P6SM -SHRA BKN050 OVC100 FM212100 17015G25KT P6SM BKN060 TEMPO 2121/2201 P6SM -SHRA PROB30 2121/2201 VRB20G30KT 6SM TSRA BKN060CB FM220100 01010KT P6SM FEW060 RMK FCST BASED ON AUTO OBS. NXT FCST BY 220100Z